sensor_id;sensor_type;location;lat;lon;timestamp;P1;durP1;ratioP1;P2;durP2;ratioP2
6564;SDS011;3316;44.118;27.258;2023-12-20T00:01:19;21.60;;;12.13;;
6564;SDS011;3316;44.118;27.258;2023-12-20T00:03:44;24.93;;;15.30;;
6564;SDS011;3316;44.118;27.258;2023-12-20T00:06:10;25.90;;;15.70;;
6564;SDS011;3316;44.118;27.258;2023-12-20T00:08:36;26.90;;;14.17;;
6564;SDS011;3316;44.118;27.258;2023-12-20T00:11:02;24.73;;;13.90;;
6564;SDS011;3316;44.118;27.258;2023-12-20T00:13:27;29.00;;;13.63;;
6564;SDS011;3316;44.118;27.258;2023-12-20T00:15:53;22.60;;;12.57;;
6564;SDS011;3316;44.118;27.258;2023-12-20T00:18:18;26.67;;;13.80;;
6564;SDS011;3316;44.118;27.258;2023-12-20T00:20:44;22.63;;;13.37;;
6564;SDS011;3316;44.118;27.258;2023-12-20T00:23:09;20.43;;;12.87;;
6564;SDS011;3316;44.118;27.258;2023-12-20T00:25:34;24.93;;;14.47;;
6564;SDS011;3316;44.118;27.258;2023-12-20T00:28:00;26.67;;;14.53;;
6564;SDS011;3316;44.118;27.258;2023-12-20T00:30:26;22.80;;;13.90;;
6564;SDS011;3316;44.118;27.258;2023-12-20T00:32:51;22.60;;;13.10;;
6564;SDS011;3316;44.118;27.258;2023-12-20T00:35:17;24.30;;;13.87;;
6564;SDS011;3316;44.118;27.258;2023-12-20T00:37:42;23.53;;;13.40;;
6564;SDS011;3316;44.118;27.258;2023-12-20T00:40:08;19.97;;;12.37;;
6564;SDS011;3316;44.118;27.258;2023-12-20T00:42:34;19.33;;;11.47;;
6564;SDS011;3316;44.118;27.258;2023-12-20T00:45:03;18.33;;;11.47;;
6564;SDS011;3316;44.118;27.258;2023-12-20T00:47:30;20.27;;;11.90;;
6564;SDS011;3316;44.118;27.258;2023-12-20T00:49:55;18.23;;;10.90;;
6564;SDS011;3316;44.118;27.258;2023-12-20T00:52:21;18.70;;;11.73;;
6564;SDS011;3316;44.118;27.258;2023-12-20T00:54:47;22.60;;;12.70;;
6564;SDS011;3316;44.118;27.258;2023-12-20T00:57:13;21.67;;;13.10;;
6564;SDS011;3316;44.118;27.258;2023-12-20T00:59:38;22.03;;;12.33;;
6564;SDS011;3316;44.118;27.258;2023-12-20T01:02:04;23.50;;;13.00;;
6564;SDS011;3316;44.118;27.258;2023-12-20T01:04:29;18.00;;;10.43;;
6564;SDS011;3316;44.118;27.258;2023-12-20T01:06:55;11.47;;;7.03;;
6564;SDS011;3316;44.118;27.258;2023-12-20T01:09:20;16.03;;;9.13;;
6564;SDS011;3316;44.118;27.258;2023-12-20T01:11:48;12.30;;;7.20;;
6564;SDS011;3316;44.118;27.258;2023-12-20T01:14:14;13.30;;;8.20;;
6564;SDS011;3316;44.118;27.258;2023-12-20T01:16:39;15.63;;;8.73;;
6564;SDS011;3316;44.118;27.258;2023-12-20T01:19:05;9.47;;;5.47;;
6564;SDS011;3316;44.118;27.258;2023-12-20T01:21:30;12.77;;;6.90;;
6564;SDS011;3316;44.118;27.258;2023-12-20T01:23:56;16.77;;;9.40;;
6564;SDS011;3316;44.118;27.258;2023-12-20T01:26:21;15.97;;;9.13;;
6564;SDS011;3316;44.118;27.258;2023-12-20T01:28:46;18.10;;;9.80;;
6564;SDS011;3316;44.118;27.258;2023-12-20T01:31:12;18.80;;;10.23;;
6564;SDS011;3316;44.118;27.258;2023-12-20T01:33:38;13.50;;;7.60;;
6564;SDS011;3316;44.118;27.258;2023-12-20T01:36:03;11.00;;;5.90;;
6564;SDS011;3316;44.118;27.258;2023-12-20T01:38:29;7.33;;;5.03;;
6564;SDS011;3316;44.118;27.258;2023-12-20T01:40:54;12.73;;;5.83;;
6564;SDS011;3316;44.118;27.258;2023-12-20T01:43:20;9.57;;;6.03;;
6564;SDS011;3316;44.118;27.258;2023-12-20T01:45:46;11.93;;;6.40;;
6564;SDS011;3316;44.118;27.258;2023-12-20T01:48:12;18.47;;;9.93;;
6564;SDS011;3316;44.118;27.258;2023-12-20T01:50:39;17.17;;;9.10;;
6564;SDS011;3316;44.118;27.258;2023-12-20T01:53:05;23.63;;;11.43;;
6564;SDS011;3316;44.118;27.258;2023-12-20T01:55:34;16.73;;;9.90;;
6564;SDS011;3316;44.118;27.258;2023-12-20T01:58:01;20.83;;;10.20;;
6564;SDS011;3316;44.118;27.258;2023-12-20T02:00:28;16.93;;;9.30;;
6564;SDS011;3316;44.118;27.258;2023-12-20T02:02:55;19.53;;;10.67;;
6564;SDS011;3316;44.118;27.258;2023-12-20T02:05:21;16.87;;;9.33;;
6564;SDS011;3316;44.118;27.258;2023-12-20T02:07:47;17.30;;;8.57;;
6564;SDS011;3316;44.118;27.258;2023-12-20T02:10:12;17.97;;;10.40;;
6564;SDS011;3316;44.118;27.258;2023-12-20T02:12:38;15.90;;;9.53;;
6564;SDS011;3316;44.118;27.258;2023-12-20T02:15:04;15.27;;;8.17;;
6564;SDS011;3316;44.118;27.258;2023-12-20T02:17:30;12.37;;;8.10;;
6564;SDS011;3316;44.118;27.258;2023-12-20T02:19:56;9.90;;;6.67;;
6564;SDS011;3316;44.118;27.258;2023-12-20T02:22:22;9.20;;;6.43;;
6564;SDS011;3316;44.118;27.258;2023-12-20T02:24:47;14.60;;;7.40;;
6564;SDS011;3316;44.118;27.258;2023-12-20T02:27:13;12.13;;;7.73;;
6564;SDS011;3316;44.118;27.258;2023-12-20T02:29:40;13.63;;;6.83;;
6564;SDS011;3316;44.118;27.258;2023-12-20T02:32:06;30.43;;;12.70;;
6564;SDS011;3316;44.118;27.258;2023-12-20T02:34:31;47.73;;;17.47;;
6564;SDS011;3316;44.118;27.258;2023-12-20T02:36:56;35.83;;;15.13;;
6564;SDS011;3316;44.118;27.258;2023-12-20T02:39:22;36.83;;;14.60;;
6564;SDS011;3316;44.118;27.258;2023-12-20T02:41:48;24.93;;;10.87;;
6564;SDS011;3316;44.118;27.258;2023-12-20T02:44:13;27.50;;;12.13;;
6564;SDS011;3316;44.118;27.258;2023-12-20T02:46:39;25.17;;;11.70;;
6564;SDS011;3316;44.118;27.258;2023-12-20T02:49:05;18.30;;;8.57;;
6564;SDS011;3316;44.118;27.258;2023-12-20T02:51:31;19.40;;;9.80;;
6564;SDS011;3316;44.118;27.258;2023-12-20T02:53:56;18.37;;;9.33;;
6564;SDS011;3316;44.118;27.258;2023-12-20T02:56:22;18.37;;;10.00;;
6564;SDS011;3316;44.118;27.258;2023-12-20T02:58:47;13.77;;;8.03;;
6564;SDS011;3316;44.118;27.258;2023-12-20T03:01:13;12.20;;;7.43;;
6564;SDS011;3316;44.118;27.258;2023-12-20T03:03:38;14.93;;;7.73;;
6564;SDS011;3316;44.118;27.258;2023-12-20T03:06:04;11.60;;;6.57;;
6564;SDS011;3316;44.118;27.258;2023-12-20T03:08:29;16.63;;;7.83;;
6564;SDS011;3316;44.118;27.258;2023-12-20T03:10:55;18.23;;;10.30;;
6564;SDS011;3316;44.118;27.258;2023-12-20T03:13:20;21.93;;;11.97;;
6564;SDS011;3316;44.118;27.258;2023-12-20T03:15:46;38.20;;;18.93;;
6564;SDS011;3316;44.118;27.258;2023-12-20T03:18:11;109.00;;;46.90;;
6564;SDS011;3316;44.118;27.258;2023-12-20T03:20:37;132.43;;;57.33;;
6564;SDS011;3316;44.118;27.258;2023-12-20T03:23:02;119.87;;;50.93;;
6564;SDS011;3316;44.118;27.258;2023-12-20T03:25:28;143.40;;;62.33;;
6564;SDS011;3316;44.118;27.258;2023-12-20T03:27:53;140.60;;;59.87;;
6564;SDS011;3316;44.118;27.258;2023-12-20T03:30:19;152.87;;;65.03;;
6564;SDS011;3316;44.118;27.258;2023-12-20T03:32:45;141.87;;;63.13;;
6564;SDS011;3316;44.118;27.258;2023-12-20T03:35:11;93.57;;;43.47;;
6564;SDS011;3316;44.118;27.258;2023-12-20T03:37:36;101.13;;;46.33;;
6564;SDS011;3316;44.118;27.258;2023-12-20T03:40:02;44.03;;;22.53;;
6564;SDS011;3316;44.118;27.258;2023-12-20T03:42:28;58.60;;;29.33;;
6564;SDS011;3316;44.118;27.258;2023-12-20T03:44:53;69.73;;;33.03;;
6564;SDS011;3316;44.118;27.258;2023-12-20T03:47:19;77.73;;;34.40;;
6564;SDS011;3316;44.118;27.258;2023-12-20T03:49:44;45.47;;;21.40;;
6564;SDS011;3316;44.118;27.258;2023-12-20T03:52:10;45.80;;;22.70;;
6564;SDS011;3316;44.118;27.258;2023-12-20T03:54:36;74.97;;;33.83;;
6564;SDS011;3316;44.118;27.258;2023-12-20T03:57:01;38.77;;;18.73;;
6564;SDS011;3316;44.118;27.258;2023-12-20T03:59:27;42.30;;;20.20;;
6564;SDS011;3316;44.118;27.258;2023-12-20T04:01:52;55.60;;;25.03;;
6564;SDS011;3316;44.118;27.258;2023-12-20T04:04:18;91.87;;;35.17;;
6564;SDS011;3316;44.118;27.258;2023-12-20T04:06:44;115.30;;;42.47;;
6564;SDS011;3316;44.118;27.258;2023-12-20T04:09:09;201.37;;;68.13;;
6564;SDS011;3316;44.118;27.258;2023-12-20T04:11:35;181.93;;;65.93;;
6564;SDS011;3316;44.118;27.258;2023-12-20T04:14:01;175.20;;;61.80;;
6564;SDS011;3316;44.118;27.258;2023-12-20T04:16:26;124.43;;;51.27;;
6564;SDS011;3316;44.118;27.258;2023-12-20T04:18:52;127.53;;;48.57;;
6564;SDS011;3316;44.118;27.258;2023-12-20T04:21:17;129.63;;;51.77;;
6564;SDS011;3316;44.118;27.258;2023-12-20T04:23:43;133.57;;;52.13;;
6564;SDS011;3316;44.118;27.258;2023-12-20T04:26:08;123.13;;;48.20;;
6564;SDS011;3316;44.118;27.258;2023-12-20T04:28:34;133.17;;;49.87;;
6564;SDS011;3316;44.118;27.258;2023-12-20T04:31:00;110.03;;;44.23;;
6564;SDS011;3316;44.118;27.258;2023-12-20T04:33:25;53.30;;;23.23;;
6564;SDS011;3316;44.118;27.258;2023-12-20T04:35:50;46.43;;;23.13;;
6564;SDS011;3316;44.118;27.258;2023-12-20T04:38:16;41.70;;;21.57;;
6564;SDS011;3316;44.118;27.258;2023-12-20T04:40:42;29.17;;;14.67;;
6564;SDS011;3316;44.118;27.258;2023-12-20T04:43:07;19.63;;;11.30;;
6564;SDS011;3316;44.118;27.258;2023-12-20T04:45:33;20.33;;;12.13;;
6564;SDS011;3316;44.118;27.258;2023-12-20T04:47:59;17.00;;;10.97;;
6564;SDS011;3316;44.118;27.258;2023-12-20T04:50:26;16.97;;;10.10;;
6564;SDS011;3316;44.118;27.258;2023-12-20T04:52:51;19.13;;;12.10;;
6564;SDS011;3316;44.118;27.258;2023-12-20T04:55:17;35.80;;;16.60;;
6564;SDS011;3316;44.118;27.258;2023-12-20T04:57:42;74.53;;;26.70;;
6564;SDS011;3316;44.118;27.258;2023-12-20T05:00:08;23.40;;;11.67;;
6564;SDS011;3316;44.118;27.258;2023-12-20T05:02:34;21.27;;;12.90;;
6564;SDS011;3316;44.118;27.258;2023-12-20T05:05:00;18.97;;;9.67;;
6564;SDS011;3316;44.118;27.258;2023-12-20T05:07:26;14.20;;;7.87;;
6564;SDS011;3316;44.118;27.258;2023-12-20T05:09:51;21.53;;;12.50;;
6564;SDS011;3316;44.118;27.258;2023-12-20T05:12:17;21.30;;;11.60;;
6564;SDS011;3316;44.118;27.258;2023-12-20T05:14:42;15.50;;;9.50;;
6564;SDS011;3316;44.118;27.258;2023-12-20T05:17:07;95.00;;;51.73;;
6564;SDS011;3316;44.118;27.258;2023-12-20T05:19:33;38.70;;;18.17;;
6564;SDS011;3316;44.118;27.258;2023-12-20T05:22:00;32.73;;;15.80;;
6564;SDS011;3316;44.118;27.258;2023-12-20T05:24:26;57.73;;;30.70;;
6564;SDS011;3316;44.118;27.258;2023-12-20T05:26:52;50.43;;;26.00;;
6564;SDS011;3316;44.118;27.258;2023-12-20T05:29:17;57.60;;;30.47;;
6564;SDS011;3316;44.118;27.258;2023-12-20T05:31:43;72.37;;;36.70;;
6564;SDS011;3316;44.118;27.258;2023-12-20T05:34:08;84.53;;;41.73;;
6564;SDS011;3316;44.118;27.258;2023-12-20T05:36:34;106.37;;;44.00;;
6564;SDS011;3316;44.118;27.258;2023-12-20T05:39:00;90.97;;;45.63;;
6564;SDS011;3316;44.118;27.258;2023-12-20T05:41:25;63.43;;;33.63;;
6564;SDS011;3316;44.118;27.258;2023-12-20T05:43:50;79.70;;;38.13;;
6564;SDS011;3316;44.118;27.258;2023-12-20T05:46:16;102.07;;;47.87;;
6564;SDS011;3316;44.118;27.258;2023-12-20T05:48:41;153.80;;;79.23;;
6564;SDS011;3316;44.118;27.258;2023-12-20T05:51:07;205.83;;;106.80;;
6564;SDS011;3316;44.118;27.258;2023-12-20T05:53:33;106.77;;;55.73;;
6564;SDS011;3316;44.118;27.258;2023-12-20T05:55:58;81.73;;;42.43;;
6564;SDS011;3316;44.118;27.258;2023-12-20T05:58:24;61.87;;;30.43;;
6564;SDS011;3316;44.118;27.258;2023-12-20T06:00:50;37.70;;;20.30;;
6564;SDS011;3316;44.118;27.258;2023-12-20T06:03:15;45.53;;;24.73;;
6564;SDS011;3316;44.118;27.258;2023-12-20T06:05:42;60.90;;;28.60;;
6564;SDS011;3316;44.118;27.258;2023-12-20T06:08:07;33.13;;;18.93;;
6564;SDS011;3316;44.118;27.258;2023-12-20T06:10:33;27.63;;;15.13;;
6564;SDS011;3316;44.118;27.258;2023-12-20T06:12:58;23.00;;;14.10;;
6564;SDS011;3316;44.118;27.258;2023-12-20T06:15:25;36.67;;;26.13;;
6564;SDS011;3316;44.118;27.258;2023-12-20T06:17:51;65.33;;;35.53;;
6564;SDS011;3316;44.118;27.258;2023-12-20T06:20:16;59.80;;;34.93;;
6564;SDS011;3316;44.118;27.258;2023-12-20T06:22:42;54.50;;;33.90;;
6564;SDS011;3316;44.118;27.258;2023-12-20T06:25:07;39.37;;;26.43;;
6564;SDS011;3316;44.118;27.258;2023-12-20T06:27:33;49.70;;;29.70;;
6564;SDS011;3316;44.118;27.258;2023-12-20T06:29:59;45.97;;;26.23;;
6564;SDS011;3316;44.118;27.258;2023-12-20T06:32:24;28.37;;;17.07;;
6564;SDS011;3316;44.118;27.258;2023-12-20T06:34:50;19.87;;;12.77;;
6564;SDS011;3316;44.118;27.258;2023-12-20T06:37:15;38.97;;;22.07;;
6564;SDS011;3316;44.118;27.258;2023-12-20T06:39:41;49.33;;;29.67;;
6564;SDS011;3316;44.118;27.258;2023-12-20T06:42:06;97.63;;;55.67;;
6564;SDS011;3316;44.118;27.258;2023-12-20T06:44:32;106.97;;;59.13;;
6564;SDS011;3316;44.118;27.258;2023-12-20T06:46:57;111.53;;;60.57;;
6564;SDS011;3316;44.118;27.258;2023-12-20T06:49:23;89.57;;;47.87;;
6564;SDS011;3316;44.118;27.258;2023-12-20T06:51:49;80.53;;;46.90;;
6564;SDS011;3316;44.118;27.258;2023-12-20T06:54:15;106.23;;;54.23;;
6564;SDS011;3316;44.118;27.258;2023-12-20T06:56:40;69.13;;;39.70;;
6564;SDS011;3316;44.118;27.258;2023-12-20T06:59:06;133.90;;;72.68;;
6564;SDS011;3316;44.118;27.258;2023-12-20T07:01:31;77.40;;;48.17;;
6564;SDS011;3316;44.118;27.258;2023-12-20T07:03:57;111.22;;;64.10;;
6564;SDS011;3316;44.118;27.258;2023-12-20T07:06:22;85.18;;;46.92;;
6564;SDS011;3316;44.118;27.258;2023-12-20T07:08:48;63.60;;;42.15;;
6564;SDS011;3316;44.118;27.258;2023-12-20T07:11:14;138.45;;;88.10;;
6564;SDS011;3316;44.118;27.258;2023-12-20T07:13:39;117.38;;;66.55;;
6564;SDS011;3316;44.118;27.258;2023-12-20T07:16:05;103.47;;;62.78;;
6564;SDS011;3316;44.118;27.258;2023-12-20T07:18:30;100.00;;;60.97;;
6564;SDS011;3316;44.118;27.258;2023-12-20T07:20:56;107.20;;;62.92;;
6564;SDS011;3316;44.118;27.258;2023-12-20T07:23:21;113.20;;;68.68;;
6564;SDS011;3316;44.118;27.258;2023-12-20T07:25:47;100.90;;;66.28;;
6564;SDS011;3316;44.118;27.258;2023-12-20T07:28:12;112.57;;;70.05;;
6564;SDS011;3316;44.118;27.258;2023-12-20T07:30:38;109.40;;;70.07;;
6564;SDS011;3316;44.118;27.258;2023-12-20T07:33:03;118.85;;;74.40;;
6564;SDS011;3316;44.118;27.258;2023-12-20T07:35:29;109.57;;;68.75;;
6564;SDS011;3316;44.118;27.258;2023-12-20T07:37:54;102.28;;;63.40;;
6564;SDS011;3316;44.118;27.258;2023-12-20T07:40:20;107.43;;;60.95;;
6564;SDS011;3316;44.118;27.258;2023-12-20T07:42:45;90.18;;;55.75;;
6564;SDS011;3316;44.118;27.258;2023-12-20T07:45:12;74.28;;;47.22;;
6564;SDS011;3316;44.118;27.258;2023-12-20T07:47:37;65.57;;;42.88;;
6564;SDS011;3316;44.118;27.258;2023-12-20T07:50:03;65.47;;;41.00;;
6564;SDS011;3316;44.118;27.258;2023-12-20T07:52:29;57.55;;;37.40;;
6564;SDS011;3316;44.118;27.258;2023-12-20T07:54:54;48.63;;;32.22;;
6564;SDS011;3316;44.118;27.258;2023-12-20T07:57:20;49.55;;;31.95;;
6564;SDS011;3316;44.118;27.258;2023-12-20T07:59:46;48.55;;;30.60;;
6564;SDS011;3316;44.118;27.258;2023-12-20T08:02:11;74.00;;;43.05;;
6564;SDS011;3316;44.118;27.258;2023-12-20T08:04:37;45.00;;;30.95;;
6564;SDS011;3316;44.118;27.258;2023-12-20T08:07:03;50.17;;;32.90;;
6564;SDS011;3316;44.118;27.258;2023-12-20T08:09:29;47.47;;;32.28;;
6564;SDS011;3316;44.118;27.258;2023-12-20T08:11:54;66.35;;;41.70;;
6564;SDS011;3316;44.118;27.258;2023-12-20T08:14:20;50.13;;;33.65;;
6564;SDS011;3316;44.118;27.258;2023-12-20T08:16:48;53.03;;;36.53;;
6564;SDS011;3316;44.118;27.258;2023-12-20T08:19:13;36.60;;;24.38;;
6564;SDS011;3316;44.118;27.258;2023-12-20T08:21:38;28.65;;;20.60;;
6564;SDS011;3316;44.118;27.258;2023-12-20T08:24:04;52.28;;;28.00;;
6564;SDS011;3316;44.118;27.258;2023-12-20T08:26:30;54.50;;;29.73;;
6564;SDS011;3316;44.118;27.258;2023-12-20T08:28:55;35.72;;;22.48;;
6564;SDS011;3316;44.118;27.258;2023-12-20T08:31:21;32.88;;;21.20;;
6564;SDS011;3316;44.118;27.258;2023-12-20T08:33:47;30.08;;;22.15;;
6564;SDS011;3316;44.118;27.258;2023-12-20T08:36:13;31.35;;;22.10;;
6564;SDS011;3316;44.118;27.258;2023-12-20T08:38:39;53.75;;;30.35;;
6564;SDS011;3316;44.118;27.258;2023-12-20T08:41:05;76.30;;;40.15;;
6564;SDS011;3316;44.118;27.258;2023-12-20T08:43:31;46.45;;;31.02;;
6564;SDS011;3316;44.118;27.258;2023-12-20T08:45:57;50.78;;;32.75;;
6564;SDS011;3316;44.118;27.258;2023-12-20T08:48:22;41.72;;;31.08;;
6564;SDS011;3316;44.118;27.258;2023-12-20T08:50:48;40.08;;;28.48;;
6564;SDS011;3316;44.118;27.258;2023-12-20T08:53:20;47.80;;;27.70;;
6564;SDS011;3316;44.118;27.258;2023-12-20T08:55:46;119.60;;;53.33;;
6564;SDS011;3316;44.118;27.258;2023-12-20T08:58:12;140.35;;;59.75;;
6564;SDS011;3316;44.118;27.258;2023-12-20T09:00:37;52.60;;;27.95;;
6564;SDS011;3316;44.118;27.258;2023-12-20T09:03:03;82.40;;;41.53;;
6564;SDS011;3316;44.118;27.258;2023-12-20T09:05:29;95.10;;;46.17;;
6564;SDS011;3316;44.118;27.258;2023-12-20T09:07:55;60.00;;;36.25;;
6564;SDS011;3316;44.118;27.258;2023-12-20T09:10:20;44.90;;;29.83;;
6564;SDS011;3316;44.118;27.258;2023-12-20T09:12:50;42.60;;;28.00;;
6564;SDS011;3316;44.118;27.258;2023-12-20T09:15:21;30.85;;;21.40;;
6564;SDS011;3316;44.118;27.258;2023-12-20T09:17:50;25.77;;;18.42;;
6564;SDS011;3316;44.118;27.258;2023-12-20T09:20:16;25.60;;;18.95;;
6564;SDS011;3316;44.118;27.258;2023-12-20T09:22:41;25.50;;;16.90;;
6564;SDS011;3316;44.118;27.258;2023-12-20T09:25:07;26.92;;;18.15;;
6564;SDS011;3316;44.118;27.258;2023-12-20T09:27:33;24.25;;;17.83;;
6564;SDS011;3316;44.118;27.258;2023-12-20T09:29:58;25.17;;;17.52;;
6564;SDS011;3316;44.118;27.258;2023-12-20T09:32:24;25.25;;;15.60;;
6564;SDS011;3316;44.118;27.258;2023-12-20T09:34:49;20.40;;;15.00;;
6564;SDS011;3316;44.118;27.258;2023-12-20T09:37:14;28.50;;;14.80;;
6564;SDS011;3316;44.118;27.258;2023-12-20T09:39:40;23.30;;;16.00;;
6564;SDS011;3316;44.118;27.258;2023-12-20T09:42:06;24.17;;;16.70;;
6564;SDS011;3316;44.118;27.258;2023-12-20T09:44:32;55.67;;;28.47;;
6564;SDS011;3316;44.118;27.258;2023-12-20T09:46:59;35.83;;;21.53;;
6564;SDS011;3316;44.118;27.258;2023-12-20T09:49:27;31.73;;;19.43;;
6564;SDS011;3316;44.118;27.258;2023-12-20T09:51:54;29.10;;;17.97;;
6564;SDS011;3316;44.118;27.258;2023-12-20T09:54:21;31.63;;;19.60;;
6564;SDS011;3316;44.118;27.258;2023-12-20T09:56:47;33.37;;;16.13;;
6564;SDS011;3316;44.118;27.258;2023-12-20T09:59:13;20.27;;;13.70;;
6564;SDS011;3316;44.118;27.258;2023-12-20T10:01:40;26.27;;;15.43;;
6564;SDS011;3316;44.118;27.258;2023-12-20T10:04:06;28.23;;;13.50;;
6564;SDS011;3316;44.118;27.258;2023-12-20T10:06:35;31.07;;;14.00;;
6564;SDS011;3316;44.118;27.258;2023-12-20T10:09:01;19.67;;;12.37;;
6564;SDS011;3316;44.118;27.258;2023-12-20T10:11:27;26.40;;;14.80;;
6564;SDS011;3316;44.118;27.258;2023-12-20T10:13:58;39.13;;;19.97;;
6564;SDS011;3316;44.118;27.258;2023-12-20T10:16:26;24.03;;;14.57;;
6564;SDS011;3316;44.118;27.258;2023-12-20T10:18:52;26.07;;;13.23;;
6564;SDS011;3316;44.118;27.258;2023-12-20T10:21:18;31.27;;;17.03;;
6564;SDS011;3316;44.118;27.258;2023-12-20T10:23:45;45.90;;;23.03;;
6564;SDS011;3316;44.118;27.258;2023-12-20T10:26:17;41.67;;;21.60;;
6564;SDS011;3316;44.118;27.258;2023-12-20T10:28:45;40.73;;;23.57;;
6564;SDS011;3316;44.118;27.258;2023-12-20T10:31:10;45.73;;;26.43;;
6564;SDS011;3316;44.118;27.258;2023-12-20T10:33:36;38.33;;;20.53;;
6564;SDS011;3316;44.118;27.258;2023-12-20T10:36:01;37.03;;;19.47;;
6564;SDS011;3316;44.118;27.258;2023-12-20T10:38:27;42.73;;;20.90;;
6564;SDS011;3316;44.118;27.258;2023-12-20T10:40:56;35.97;;;18.37;;
6564;SDS011;3316;44.118;27.258;2023-12-20T10:43:26;30.70;;;17.73;;
6564;SDS011;3316;44.118;27.258;2023-12-20T10:45:54;25.80;;;15.37;;
6564;SDS011;3316;44.118;27.258;2023-12-20T10:48:19;42.03;;;20.77;;
6564;SDS011;3316;44.118;27.258;2023-12-20T10:50:47;35.07;;;16.73;;
6564;SDS011;3316;44.118;27.258;2023-12-20T10:53:13;40.70;;;23.60;;
6564;SDS011;3316;44.118;27.258;2023-12-20T10:55:40;34.57;;;18.70;;
6564;SDS011;3316;44.118;27.258;2023-12-20T10:58:07;42.53;;;22.33;;
6564;SDS011;3316;44.118;27.258;2023-12-20T11:00:35;47.13;;;26.53;;
6564;SDS011;3316;44.118;27.258;2023-12-20T11:03:05;34.17;;;19.93;;
6564;SDS011;3316;44.118;27.258;2023-12-20T11:05:45;34.93;;;19.40;;
6564;SDS011;3316;44.118;27.258;2023-12-20T11:08:29;32.93;;;19.80;;
6564;SDS011;3316;44.118;27.258;2023-12-20T11:11:04;46.00;;;22.97;;
6564;SDS011;3316;44.118;27.258;2023-12-20T11:14:20;45.87;;;26.17;;
6564;SDS011;3316;44.118;27.258;2023-12-20T11:16:23;35.03;;;20.33;;
6564;SDS011;3316;44.118;27.258;2023-12-20T11:18:50;33.37;;;19.00;;
6564;SDS011;3316;44.118;27.258;2023-12-20T11:21:16;38.23;;;19.97;;
6564;SDS011;3316;44.118;27.258;2023-12-20T11:23:42;31.10;;;19.20;;
6564;SDS011;3316;44.118;27.258;2023-12-20T11:26:07;36.53;;;21.80;;
6564;SDS011;3316;44.118;27.258;2023-12-20T11:28:33;31.60;;;18.77;;
6564;SDS011;3316;44.118;27.258;2023-12-20T11:31:00;31.63;;;19.03;;
6564;SDS011;3316;44.118;27.258;2023-12-20T11:33:30;33.63;;;18.17;;
6564;SDS011;3316;44.118;27.258;2023-12-20T11:36:00;34.83;;;19.30;;
6564;SDS011;3316;44.118;27.258;2023-12-20T11:38:26;34.80;;;18.50;;
6564;SDS011;3316;44.118;27.258;2023-12-20T11:40:53;34.13;;;18.87;;
6564;SDS011;3316;44.118;27.258;2023-12-20T11:43:30;38.47;;;19.50;;
6564;SDS011;3316;44.118;27.258;2023-12-20T11:46:03;32.97;;;18.77;;
6564;SDS011;3316;44.118;27.258;2023-12-20T11:48:30;35.00;;;19.93;;
6564;SDS011;3316;44.118;27.258;2023-12-20T11:50:56;41.07;;;21.87;;
6564;SDS011;3316;44.118;27.258;2023-12-20T11:53:22;30.93;;;18.93;;
6564;SDS011;3316;44.118;27.258;2023-12-20T11:55:48;38.90;;;18.70;;
6564;SDS011;3316;44.118;27.258;2023-12-20T11:58:14;39.03;;;22.43;;
6564;SDS011;3316;44.118;27.258;2023-12-20T12:00:41;30.03;;;17.23;;
6564;SDS011;3316;44.118;27.258;2023-12-20T12:03:07;26.83;;;12.90;;
6564;SDS011;3316;44.118;27.258;2023-12-20T12:05:33;22.93;;;12.00;;
6564;SDS011;3316;44.118;27.258;2023-12-20T12:07:58;17.13;;;10.57;;
6564;SDS011;3316;44.118;27.258;2023-12-20T12:10:24;16.37;;;10.37;;
6564;SDS011;3316;44.118;27.258;2023-12-20T12:12:49;20.17;;;10.93;;
6564;SDS011;3316;44.118;27.258;2023-12-20T12:15:15;16.77;;;10.20;;
6564;SDS011;3316;44.118;27.258;2023-12-20T12:17:40;12.77;;;8.97;;
6564;SDS011;3316;44.118;27.258;2023-12-20T12:20:06;14.70;;;10.03;;
6564;SDS011;3316;44.118;27.258;2023-12-20T12:22:33;19.70;;;10.73;;
6564;SDS011;3316;44.118;27.258;2023-12-20T12:24:59;21.07;;;11.10;;
6564;SDS011;3316;44.118;27.258;2023-12-20T12:27:34;22.50;;;12.53;;
6564;SDS011;3316;44.118;27.258;2023-12-20T12:30:03;18.97;;;10.87;;
6564;SDS011;3316;44.118;27.258;2023-12-20T12:32:30;20.83;;;11.77;;
6564;SDS011;3316;44.118;27.258;2023-12-20T12:34:55;17.23;;;11.87;;
6564;SDS011;3316;44.118;27.258;2023-12-20T12:37:22;18.80;;;10.50;;
6564;SDS011;3316;44.118;27.258;2023-12-20T12:39:49;12.10;;;8.33;;
6564;SDS011;3316;44.118;27.258;2023-12-20T12:42:14;18.13;;;10.60;;
6564;SDS011;3316;44.118;27.258;2023-12-20T12:44:40;17.27;;;10.60;;
6564;SDS011;3316;44.118;27.258;2023-12-20T12:47:05;19.80;;;11.37;;
6564;SDS011;3316;44.118;27.258;2023-12-20T12:49:31;12.03;;;8.83;;
6564;SDS011;3316;44.118;27.258;2023-12-20T12:51:57;16.80;;;9.70;;
6564;SDS011;3316;44.118;27.258;2023-12-20T12:54:23;14.90;;;8.77;;
6564;SDS011;3316;44.118;27.258;2023-12-20T12:56:49;15.17;;;8.70;;
6564;SDS011;3316;44.118;27.258;2023-12-20T12:59:15;17.20;;;10.80;;
6564;SDS011;3316;44.118;27.258;2023-12-20T13:01:41;19.20;;;11.97;;
6564;SDS011;3316;44.118;27.258;2023-12-20T13:04:07;19.93;;;11.70;;
6564;SDS011;3316;44.118;27.258;2023-12-20T13:06:36;20.10;;;11.43;;
6564;SDS011;3316;44.118;27.258;2023-12-20T13:09:02;18.33;;;11.67;;
6564;SDS011;3316;44.118;27.258;2023-12-20T13:11:29;22.63;;;13.67;;
6564;SDS011;3316;44.118;27.258;2023-12-20T13:13:56;24.33;;;14.10;;
6564;SDS011;3316;44.118;27.258;2023-12-20T13:16:22;22.13;;;12.80;;
6564;SDS011;3316;44.118;27.258;2023-12-20T13:18:49;21.43;;;13.47;;
6564;SDS011;3316;44.118;27.258;2023-12-20T13:21:15;22.90;;;14.33;;
6564;SDS011;3316;44.118;27.258;2023-12-20T13:23:41;18.17;;;12.23;;
6564;SDS011;3316;44.118;27.258;2023-12-20T13:26:06;19.23;;;11.57;;
6564;SDS011;3316;44.118;27.258;2023-12-20T13:28:32;14.77;;;9.23;;
6564;SDS011;3316;44.118;27.258;2023-12-20T13:30:58;13.60;;;9.10;;
6564;SDS011;3316;44.118;27.258;2023-12-20T13:33:23;21.10;;;12.00;;
6564;SDS011;3316;44.118;27.258;2023-12-20T13:35:48;19.23;;;11.07;;
6564;SDS011;3316;44.118;27.258;2023-12-20T13:38:14;22.80;;;12.73;;
6564;SDS011;3316;44.118;27.258;2023-12-20T13:40:40;34.70;;;17.93;;
6564;SDS011;3316;44.118;27.258;2023-12-20T13:43:05;31.37;;;16.97;;
6564;SDS011;3316;44.118;27.258;2023-12-20T13:45:31;37.10;;;20.63;;
6564;SDS011;3316;44.118;27.258;2023-12-20T13:47:56;39.27;;;23.03;;
6564;SDS011;3316;44.118;27.258;2023-12-20T13:50:22;36.43;;;22.47;;
6564;SDS011;3316;44.118;27.258;2023-12-20T13:52:47;36.03;;;20.67;;
6564;SDS011;3316;44.118;27.258;2023-12-20T13:55:13;34.93;;;21.27;;
6564;SDS011;3316;44.118;27.258;2023-12-20T13:57:38;49.63;;;23.27;;
6564;SDS011;3316;44.118;27.258;2023-12-20T14:00:05;42.27;;;21.43;;
6564;SDS011;3316;44.118;27.258;2023-12-20T14:02:31;32.73;;;18.83;;
6564;SDS011;3316;44.118;27.258;2023-12-20T14:04:56;26.17;;;15.03;;
6564;SDS011;3316;44.118;27.258;2023-12-20T14:07:21;17.67;;;10.37;;
6564;SDS011;3316;44.118;27.258;2023-12-20T14:09:47;16.60;;;10.43;;
6564;SDS011;3316;44.118;27.258;2023-12-20T14:12:13;44.80;;;18.40;;
6564;SDS011;3316;44.118;27.258;2023-12-20T14:14:39;142.37;;;50.60;;
6564;SDS011;3316;44.118;27.258;2023-12-20T14:17:04;73.10;;;30.50;;
6564;SDS011;3316;44.118;27.258;2023-12-20T14:19:31;62.80;;;24.00;;
6564;SDS011;3316;44.118;27.258;2023-12-20T14:21:57;43.77;;;20.37;;
6564;SDS011;3316;44.118;27.258;2023-12-20T14:24:26;50.63;;;22.80;;
6564;SDS011;3316;44.118;27.258;2023-12-20T14:26:51;42.97;;;20.07;;
6564;SDS011;3316;44.118;27.258;2023-12-20T14:29:17;31.03;;;15.77;;